Terminal Aerodrome Forecast
Issued by NWS Springfield, MO

Home | Current Version | Previous Version | Text Only | Print | Product List | Glossary On
Versions: 1 2 3 4 5 6 7 8 9 10 11 12 13
000
FTUS43 KSGF 191000 AAA
TAFSGF
TAF AMD
KSGF 191005Z 1910/2006 19005KT P6SM SCT080 BKN250
      TEMPO 1912/1914 4SM -TSRA BR SCT020 OVC040CB
     FM191400 21010KT P6SM VCTS SCT040CB OVC150
     FM191700 21012G20KT P6SM SCT050
     FM200100 19007KT P6SM SKC=

USA.gov is the U.S. government's official web portal to all federal, state and local government web resources and services.